createdAt,value
2017-11-06T00:00:29.227Z,978.80
2017-11-06T00:01:29.222Z,978.80
2017-11-06T00:02:29.216Z,978.81
2017-11-06T00:03:29.213Z,978.85
2017-11-06T00:04:29.209Z,978.81
2017-11-06T00:05:29.204Z,978.88
2017-11-06T00:06:29.205Z,978.84
2017-11-06T00:07:29.189Z,978.84
2017-11-06T00:08:29.190Z,978.85
2017-11-06T00:09:29.185Z,978.83
2017-11-06T00:10:29.182Z,978.88
2017-11-06T00:11:29.176Z,978.86
2017-11-06T00:12:29.170Z,978.84
2017-11-06T00:13:29.168Z,978.85
2017-11-06T00:14:29.163Z,978.87
2017-11-06T00:15:29.157Z,978.87
2017-11-06T00:16:29.160Z,978.88
2017-11-06T00:17:29.150Z,978.91
2017-11-06T00:18:29.142Z,978.94
2017-11-06T00:19:29.135Z,978.95
2017-11-06T00:20:29.137Z,978.91
2017-11-06T00:21:29.130Z,978.97
2017-11-06T00:22:29.123Z,978.97
2017-11-06T00:23:29.122Z,978.98
2017-11-06T00:24:29.118Z,979.00
2017-11-06T00:25:29.114Z,978.98
2017-11-06T00:26:29.111Z,979.02
2017-11-06T00:27:29.103Z,979.03
2017-11-06T00:28:29.099Z,978.99
2017-11-06T00:29:29.095Z,979.04
2017-11-06T00:30:29.090Z,979.04
2017-11-06T00:31:29.084Z,979.01
2017-11-06T00:32:29.081Z,979.05
2017-11-06T00:33:29.075Z,979.09
2017-11-06T00:34:29.072Z,979.10
2017-11-06T00:35:29.074Z,979.10
2017-11-06T00:36:29.065Z,979.08
2017-11-06T00:37:29.061Z,979.10
2017-11-06T00:38:29.053Z,979.07
2017-11-06T00:39:29.049Z,979.07
2017-11-06T00:40:29.046Z,979.19
2017-11-06T00:41:29.041Z,979.21
2017-11-06T00:42:29.031Z,979.18
2017-11-06T00:43:29.032Z,979.17
2017-11-06T00:44:29.029Z,979.18
2017-11-06T00:45:29.028Z,979.22
2017-11-06T00:46:29.020Z,979.23
2017-11-06T00:47:29.013Z,979.21
2017-11-06T00:48:29.009Z,979.26
2017-11-06T00:49:29.003Z,979.31
2017-11-06T00:50:28.999Z,979.27
2017-11-06T00:51:28.997Z,979.28
2017-11-06T00:52:28.988Z,979.30
2017-11-06T00:53:28.985Z,979.29
2017-11-06T00:54:28.981Z,979.27
2017-11-06T00:55:28.976Z,979.28
2017-11-06T00:56:29.014Z,979.34
2017-11-06T00:57:28.965Z,979.28
2017-11-06T00:58:28.961Z,979.38
2017-11-06T00:59:28.956Z,979.31
2017-11-06T01:00:28.955Z,979.37
2017-11-06T01:01:28.948Z,979.36
2017-11-06T01:02:28.945Z,979.37
2017-11-06T01:03:28.938Z,979.39
2017-11-06T01:04:28.937Z,979.38
2017-11-06T01:05:28.930Z,979.42
2017-11-06T01:06:28.930Z,979.41
2017-11-06T01:07:28.919Z,979.44
2017-11-06T01:08:28.913Z,979.44
2017-11-06T01:09:28.921Z,979.46
2017-11-06T01:10:28.906Z,979.45
2017-11-06T01:11:28.903Z,979.50
2017-11-06T01:12:28.898Z,979.49
2017-11-06T01:13:28.897Z,979.49
2017-11-06T01:14:28.887Z,979.48
2017-11-06T01:15:28.883Z,979.49
2017-11-06T01:16:28.884Z,979.51
2017-11-06T01:17:28.877Z,979.56
2017-11-06T01:18:28.868Z,979.57
2017-11-06T01:19:28.858Z,979.62
2017-11-06T01:20:28.858Z,979.65
2017-11-06T01:21:28.855Z,979.64
2017-11-06T01:22:28.847Z,979.68
2017-11-06T01:23:28.843Z,979.67
2017-11-06T01:24:28.873Z,979.67
2017-11-06T01:25:28.835Z,979.66
2017-11-06T01:26:28.834Z,979.65
2017-11-06T01:27:28.825Z,979.68
2017-11-06T01:28:28.818Z,979.69
2017-11-06T01:29:28.818Z,979.66
2017-11-06T01:30:28.812Z,979.68
2017-11-06T01:31:28.808Z,979.70
2017-11-06T01:32:28.799Z,979.70
2017-11-06T01:33:28.795Z,979.75
2017-11-06T01:34:28.793Z,979.77
2017-11-06T01:35:28.788Z,979.72
2017-11-06T01:36:28.780Z,979.70
2017-11-06T01:37:28.783Z,979.72
2017-11-06T01:38:28.777Z,979.67
2017-11-06T01:39:28.767Z,979.64
2017-11-06T01:40:28.776Z,979.62
2017-11-06T01:41:28.755Z,979.64
2017-11-06T01:42:28.764Z,979.68
2017-11-06T01:43:28.757Z,979.69
2017-11-06T01:44:28.743Z,979.73
2017-11-06T01:45:28.740Z,979.77
2017-11-06T01:46:28.735Z,979.77
2017-11-06T01:47:28.742Z,979.81
2017-11-06T01:48:28.726Z,979.81
2017-11-06T01:49:28.725Z,979.82
2017-11-06T01:50:28.716Z,979.88
2017-11-06T01:51:28.713Z,979.84
2017-11-06T01:52:28.706Z,979.81
2017-11-06T01:53:28.705Z,979.87
2017-11-06T01:54:28.696Z,979.89
2017-11-06T01:55:28.695Z,979.95
2017-11-06T01:56:28.691Z,979.97
2017-11-06T01:57:28.690Z,979.98
2017-11-06T01:58:28.681Z,979.96
2017-11-06T01:59:28.678Z,979.99
2017-11-06T02:00:28.672Z,979.97
2017-11-06T02:01:28.666Z,980.02
2017-11-06T02:02:28.664Z,980.00
2017-11-06T02:03:28.654Z,980.07
2017-11-06T02:04:28.655Z,980.04
2017-11-06T02:05:28.648Z,980.06
2017-11-06T02:06:28.644Z,980.11
2017-11-06T02:07:28.641Z,980.12
2017-11-06T02:08:28.634Z,980.16
2017-11-06T02:09:28.634Z,980.17
2017-11-06T02:10:28.630Z,980.18
2017-11-06T02:11:28.616Z,980.14
2017-11-06T02:12:28.615Z,980.16
2017-11-06T02:13:28.617Z,980.17
2017-11-06T02:14:28.609Z,980.12
2017-11-06T02:15:28.607Z,980.14
2017-11-06T02:16:28.604Z,980.11
2017-11-06T02:17:28.598Z,980.10
2017-11-06T02:18:28.594Z,980.15
2017-11-06T02:19:28.584Z,980.12
2017-11-06T02:20:28.579Z,980.08
2017-11-06T02:21:28.579Z,980.08
2017-11-06T02:22:28.573Z,980.11
2017-11-06T02:23:28.566Z,980.08
2017-11-06T02:24:28.563Z,980.10
2017-11-06T02:25:28.561Z,980.04
2017-11-06T02:26:28.552Z,980.08
2017-11-06T02:27:28.549Z,980.09
2017-11-06T02:28:28.550Z,980.04
2017-11-06T02:29:28.542Z,980.05
2017-11-06T02:30:28.535Z,980.03
2017-11-06T02:31:28.531Z,980.06
2017-11-06T02:32:28.524Z,980.09
2017-11-06T02:33:28.526Z,980.12
2017-11-06T02:34:28.515Z,980.13
2017-11-06T02:35:28.520Z,980.15
2017-11-06T02:36:28.503Z,980.16
2017-11-06T02:37:28.504Z,980.18
2017-11-06T02:38:28.497Z,980.15
2017-11-06T02:39:28.494Z,980.20
2017-11-06T02:40:28.489Z,980.19
2017-11-06T02:41:28.484Z,980.20
2017-11-06T02:42:28.483Z,980.20
2017-11-06T02:43:28.472Z,980.22
2017-11-06T02:44:28.480Z,980.24
2017-11-06T02:45:28.466Z,980.26
2017-11-06T02:46:28.457Z,980.26
2017-11-06T02:47:28.457Z,980.27
2017-11-06T02:48:28.453Z,980.33
2017-11-06T02:49:28.450Z,980.37
2017-11-06T02:50:28.443Z,980.37
2017-11-06T02:51:28.440Z,980.41
2017-11-06T02:52:28.436Z,980.42
2017-11-06T02:53:28.432Z,980.45
2017-11-06T02:54:28.424Z,980.45
2017-11-06T02:55:28.417Z,980.51
2017-11-06T02:56:28.420Z,980.47
2017-11-06T02:57:28.430Z,980.42
2017-11-06T02:58:28.413Z,980.44
2017-11-06T02:59:28.402Z,980.44
2017-11-06T03:00:28.402Z,980.45
2017-11-06T03:01:28.395Z,980.45
2017-11-06T03:02:28.391Z,980.45
2017-11-06T03:03:28.384Z,980.46
2017-11-06T03:04:28.390Z,980.49
2017-11-06T03:05:28.382Z,980.45
2017-11-06T03:06:28.373Z,980.46
2017-11-06T03:07:28.369Z,980.53
2017-11-06T03:08:28.362Z,980.50
2017-11-06T03:09:28.362Z,980.51
2017-11-06T03:10:28.351Z,980.56
2017-11-06T03:11:28.353Z,980.61
2017-11-06T03:12:28.346Z,980.60
2017-11-06T03:13:28.339Z,980.66
2017-11-06T03:14:28.335Z,980.66
2017-11-06T03:15:28.333Z,980.68
2017-11-06T03:16:28.327Z,980.68
2017-11-06T03:17:28.327Z,980.69
2017-11-06T03:18:28.318Z,980.73
2017-11-06T03:19:28.317Z,980.75
2017-11-06T03:20:28.328Z,980.82
2017-11-06T03:21:28.306Z,980.82
2017-11-06T03:22:28.320Z,980.82
2017-11-06T03:23:28.298Z,980.84
2017-11-06T03:24:28.306Z,980.86
2017-11-06T03:25:28.288Z,980.89
2017-11-06T03:26:28.292Z,980.86
2017-11-06T03:27:28.277Z,980.88
2017-11-06T03:28:28.287Z,980.95
2017-11-06T03:29:28.274Z,980.93
2017-11-06T03:30:28.288Z,980.97
2017-11-06T03:31:28.260Z,980.94
2017-11-06T03:32:28.296Z,980.97
2017-11-06T03:33:28.252Z,980.93
2017-11-06T03:34:28.294Z,980.96
2017-11-06T03:35:28.243Z,980.93
2017-11-06T03:36:28.245Z,980.89
2017-11-06T03:37:28.232Z,980.89
2017-11-06T03:38:28.238Z,980.93
2017-11-06T03:39:28.226Z,980.93
2017-11-06T03:40:28.221Z,980.95
2017-11-06T03:41:28.215Z,980.98
2017-11-06T03:42:28.211Z,980.99
2017-11-06T03:43:28.206Z,981.02
2017-11-06T03:44:28.204Z,981.04
2017-11-06T03:45:28.198Z,981.02
2017-11-06T03:46:28.193Z,981.02
2017-11-06T03:47:28.189Z,981.07
2017-11-06T03:48:28.180Z,981.05
2017-11-06T03:49:28.179Z,981.10
2017-11-06T03:50:28.171Z,981.13
2017-11-06T03:51:28.168Z,981.15
2017-11-06T03:52:28.168Z,981.19
2017-11-06T03:53:28.160Z,981.17
2017-11-06T03:54:28.164Z,981.21
2017-11-06T03:55:28.155Z,981.18
2017-11-06T03:56:28.148Z,981.21
2017-11-06T03:57:28.140Z,981.20
2017-11-06T03:58:28.137Z,981.24
2017-11-06T03:59:28.132Z,981.28
2017-11-06T04:00:28.128Z,981.25
2017-11-06T04:01:28.126Z,981.22
2017-11-06T04:02:28.121Z,981.21
2017-11-06T04:03:28.113Z,981.21
2017-11-06T04:04:28.109Z,981.19
2017-11-06T04:05:28.104Z,981.16
2017-11-06T04:06:28.098Z,981.23
2017-11-06T04:07:28.099Z,981.20
2017-11-06T04:08:28.091Z,981.23
2017-11-06T04:09:28.097Z,981.26
2017-11-06T04:10:28.081Z,981.28
2017-11-06T04:11:28.078Z,981.31
2017-11-06T04:12:28.074Z,981.34
2017-11-06T04:13:28.066Z,981.35
2017-11-06T04:14:28.062Z,981.32
2017-11-06T04:15:28.059Z,981.38
2017-11-06T04:16:28.052Z,981.37
2017-11-06T04:17:28.050Z,981.36
2017-11-06T04:18:28.047Z,981.39
2017-11-06T04:19:28.044Z,981.36
2017-11-06T04:20:28.038Z,981.36
2017-11-06T04:21:28.032Z,981.42
2017-11-06T04:22:28.038Z,981.39
2017-11-06T04:23:28.021Z,981.39
2017-11-06T04:24:28.017Z,981.40
2017-11-06T04:25:28.012Z,981.42
2017-11-06T04:26:28.007Z,981.45
2017-11-06T04:27:28.006Z,981.44
2017-11-06T04:28:28.004Z,981.50
2017-11-06T04:29:28.000Z,981.57
2017-11-06T04:30:27.985Z,981.60
2017-11-06T04:31:27.986Z,981.62
2017-11-06T04:32:27.983Z,981.68
2017-11-06T04:33:28.006Z,981.66
2017-11-06T04:34:27.976Z,981.73
2017-11-06T04:35:27.970Z,981.75
2017-11-06T04:36:27.964Z,981.76
2017-11-06T04:37:27.961Z,981.80
2017-11-06T04:38:27.954Z,981.79
2017-11-06T04:39:27.946Z,981.78
2017-11-06T04:40:27.950Z,981.81
2017-11-06T04:41:27.949Z,981.86
2017-11-06T04:42:27.931Z,981.85
2017-11-06T04:43:27.930Z,981.90
2017-11-06T04:44:27.933Z,981.88
2017-11-06T04:45:27.924Z,981.99
2017-11-06T04:46:27.920Z,981.98
2017-11-06T04:47:27.915Z,982.06
2017-11-06T04:48:27.908Z,981.90
2017-11-06T04:49:27.908Z,981.99
2017-11-06T04:50:27.902Z,982.00
2017-11-06T04:51:27.905Z,981.99
2017-11-06T04:52:27.885Z,982.04
2017-11-06T04:53:27.886Z,982.04
2017-11-06T04:54:27.899Z,982.02
2017-11-06T04:55:27.873Z,982.00
2017-11-06T04:56:27.869Z,982.00
2017-11-06T04:57:27.866Z,981.99
2017-11-06T04:58:27.871Z,982.03
2017-11-06T04:59:27.861Z,982.02
2017-11-06T05:00:27.864Z,981.93
2017-11-06T05:01:27.849Z,981.94
2017-11-06T05:02:27.844Z,981.96
2017-11-06T05:03:27.848Z,981.99
2017-11-06T05:04:27.835Z,981.99
2017-11-06T05:05:27.826Z,982.01
2017-11-06T05:06:27.826Z,982.02
2017-11-06T05:07:27.820Z,982.00
2017-11-06T05:08:27.816Z,982.03
2017-11-06T05:09:27.811Z,982.04
2017-11-06T05:10:27.802Z,982.03
2017-11-06T05:11:27.803Z,982.05
2017-11-06T05:12:27.795Z,982.05
2017-11-06T05:13:27.801Z,982.06
2017-11-06T05:14:27.781Z,982.04
2017-11-06T05:15:27.792Z,982.04
2017-11-06T05:16:27.776Z,982.03
2017-11-06T05:17:27.770Z,982.08
2017-11-06T05:18:27.772Z,982.14
2017-11-06T05:19:27.760Z,982.10
2017-11-06T05:20:27.755Z,982.10
2017-11-06T05:21:27.757Z,982.08
2017-11-06T05:22:27.751Z,982.12
2017-11-06T05:23:27.743Z,982.11
2017-11-06T05:24:27.738Z,982.10
2017-11-06T05:25:27.733Z,982.09
2017-11-06T05:26:27.729Z,982.20
2017-11-06T05:27:27.723Z,982.17
2017-11-06T05:28:27.718Z,982.15
2017-11-06T05:29:27.718Z,982.13
2017-11-06T05:30:27.709Z,982.15
2017-11-06T05:31:27.705Z,982.17
2017-11-06T05:32:27.704Z,982.20
2017-11-06T05:33:27.694Z,982.21
2017-11-06T05:34:27.690Z,982.20
2017-11-06T05:35:27.687Z,982.24
2017-11-06T05:36:27.681Z,982.23
2017-11-06T05:37:27.679Z,982.24
2017-11-06T05:38:27.675Z,982.28
2017-11-06T05:39:27.669Z,982.27
2017-11-06T05:40:27.656Z,982.30
2017-11-06T05:41:27.654Z,982.34
2017-11-06T05:42:27.653Z,982.36
2017-11-06T05:43:27.651Z,982.37
2017-11-06T05:44:27.647Z,982.42
2017-11-06T05:45:27.639Z,982.39
2017-11-06T05:46:27.631Z,982.42
2017-11-06T05:47:27.635Z,982.41
2017-11-06T05:48:27.625Z,982.46
2017-11-06T05:49:27.614Z,982.53
2017-11-06T05:50:27.616Z,982.53
2017-11-06T05:51:27.611Z,982.55
2017-11-06T05:52:27.607Z,982.61
2017-11-06T05:53:27.607Z,982.60
2017-11-06T05:54:27.608Z,982.62
2017-11-06T05:55:27.597Z,982.63
2017-11-06T05:56:27.596Z,982.66
2017-11-06T05:57:27.588Z,982.67
2017-11-06T05:58:27.582Z,982.68
2017-11-06T05:59:27.574Z,982.70
2017-11-06T06:00:27.569Z,982.66
2017-11-06T06:01:27.560Z,982.75
2017-11-06T06:02:27.559Z,982.76
2017-11-06T06:03:27.552Z,982.77
2017-11-06T06:04:27.553Z,982.79
2017-11-06T06:05:27.546Z,982.86
2017-11-06T06:06:27.546Z,982.86
2017-11-06T06:07:27.532Z,982.94
2017-11-06T06:08:27.547Z,982.95
2017-11-06T06:09:27.534Z,982.95
2017-11-06T06:10:27.523Z,983.00
2017-11-06T06:11:27.514Z,983.03
2017-11-06T06:12:27.517Z,983.01
2017-11-06T06:13:27.516Z,983.04
2017-11-06T06:14:27.508Z,983.06
2017-11-06T06:15:27.496Z,983.10
2017-11-06T06:16:27.499Z,983.10
2017-11-06T06:17:27.486Z,983.14
2017-11-06T06:18:27.487Z,983.13
2017-11-06T06:19:27.489Z,983.16
2017-11-06T06:20:27.475Z,983.13
2017-11-06T06:21:27.474Z,983.18
2017-11-06T06:22:27.497Z,983.13
2017-11-06T06:23:27.463Z,983.20
2017-11-06T06:24:27.455Z,983.23
2017-11-06T06:25:27.454Z,983.19
2017-11-06T06:26:27.448Z,983.23
2017-11-06T06:27:27.441Z,983.24
2017-11-06T06:28:27.439Z,983.27
2017-11-06T06:29:27.433Z,983.28
2017-11-06T06:30:27.428Z,983.28
2017-11-06T06:31:27.422Z,983.27
2017-11-06T06:32:27.428Z,983.26
2017-11-06T06:33:27.417Z,983.31
2017-11-06T06:34:27.407Z,983.29
2017-11-06T06:35:27.398Z,983.34
2017-11-06T06:36:27.395Z,983.34
2017-11-06T06:37:27.404Z,983.30
2017-11-06T06:38:27.399Z,983.37
2017-11-06T06:39:27.396Z,983.42
2017-11-06T06:40:27.389Z,983.43
2017-11-06T06:41:27.387Z,983.41
2017-11-06T06:42:27.371Z,983.43
2017-11-06T06:43:27.370Z,983.46
2017-11-06T06:44:27.373Z,983.47
2017-11-06T06:45:27.364Z,983.47
2017-11-06T06:46:27.355Z,983.49
2017-11-06T06:47:27.354Z,983.52
2017-11-06T06:48:27.358Z,983.49
2017-11-06T06:49:27.354Z,983.52
2017-11-06T06:50:27.348Z,983.57
2017-11-06T06:51:27.326Z,983.60
2017-11-06T06:52:27.336Z,983.64
2017-11-06T06:53:27.329Z,983.64
2017-11-06T06:54:27.318Z,983.70
2017-11-06T06:55:27.314Z,983.68
2017-11-06T06:56:27.312Z,983.68
2017-11-06T06:57:27.305Z,983.70
2017-11-06T06:58:27.297Z,983.70
2017-11-06T06:59:27.294Z,983.69
2017-11-06T07:00:27.295Z,983.68
2017-11-06T07:01:27.287Z,983.76
2017-11-06T07:02:27.282Z,983.76
2017-11-06T07:03:27.277Z,983.74
2017-11-06T07:04:27.271Z,983.80
2017-11-06T07:05:27.267Z,983.77
2017-11-06T07:06:27.263Z,983.79
2017-11-06T07:07:27.258Z,983.78
2017-11-06T07:08:27.255Z,983.80
2017-11-06T07:09:27.252Z,983.89
2017-11-06T07:10:27.240Z,983.91
2017-11-06T07:11:27.240Z,983.92
2017-11-06T07:12:27.236Z,983.94
2017-11-06T07:13:27.867Z,983.97
2017-11-06T07:14:27.228Z,983.98
2017-11-06T07:15:27.227Z,984.01
2017-11-06T07:16:27.219Z,983.97
2017-11-06T07:17:27.213Z,983.98
2017-11-06T07:18:27.209Z,983.99
2017-11-06T07:19:27.205Z,984.04
2017-11-06T07:20:27.200Z,984.06
2017-11-06T07:21:27.201Z,984.04
2017-11-06T07:22:27.193Z,984.01
2017-11-06T07:23:27.187Z,984.04
2017-11-06T07:24:27.205Z,984.02
2017-11-06T07:25:27.178Z,984.07
2017-11-06T07:26:27.174Z,984.07
2017-11-06T07:27:27.190Z,984.07
2017-11-06T07:28:27.167Z,984.06
2017-11-06T07:29:27.162Z,984.12
2017-11-06T07:30:27.161Z,984.17
2017-11-06T07:31:27.155Z,984.18
2017-11-06T07:32:27.169Z,984.23
2017-11-06T07:33:27.148Z,984.29
2017-11-06T07:34:27.142Z,984.35
2017-11-06T07:35:27.137Z,984.36
2017-11-06T07:36:27.133Z,984.37
2017-11-06T07:37:27.129Z,984.40
2017-11-06T07:38:27.122Z,984.38
2017-11-06T07:39:27.121Z,984.41
2017-11-06T07:40:27.119Z,984.44
2017-11-06T07:41:27.110Z,984.46
2017-11-06T07:42:27.110Z,984.50
2017-11-06T07:43:27.099Z,984.47
2017-11-06T07:44:27.099Z,984.52
2017-11-06T07:45:27.096Z,984.51
2017-11-06T07:46:27.092Z,984.55
2017-11-06T07:47:27.089Z,984.55
2017-11-06T07:48:27.089Z,984.59
2017-11-06T07:49:27.080Z,984.62
2017-11-06T07:50:27.073Z,984.55
2017-11-06T07:51:27.075Z,984.56
2017-11-06T07:52:27.066Z,984.53
2017-11-06T07:53:27.060Z,984.51
2017-11-06T07:54:27.060Z,984.49
2017-11-06T07:55:27.053Z,984.51
2017-11-06T07:56:27.075Z,984.49
2017-11-06T07:57:27.038Z,984.45
2017-11-06T07:58:27.043Z,984.49
2017-11-06T07:59:27.037Z,984.54
2017-11-06T08:00:27.034Z,984.51
2017-11-06T08:01:27.031Z,984.49
2017-11-06T08:02:27.026Z,984.55
2017-11-06T08:03:27.021Z,984.50
2017-11-06T08:04:27.015Z,984.53
2017-11-06T08:05:27.014Z,984.56
2017-11-06T08:06:27.015Z,984.63
2017-11-06T08:07:27.010Z,984.65
2017-11-06T08:08:27.002Z,984.69
2017-11-06T08:09:26.997Z,984.70
2017-11-06T08:10:26.990Z,984.74
2017-11-06T08:11:26.989Z,984.67
2017-11-06T08:12:26.983Z,984.72
2017-11-06T08:13:26.979Z,984.74
2017-11-06T08:14:26.977Z,984.70
2017-11-06T08:15:26.971Z,984.76
2017-11-06T08:16:26.971Z,984.67
2017-11-06T08:17:26.965Z,984.72
2017-11-06T08:18:26.976Z,984.69
2017-11-06T08:19:26.951Z,984.73
2017-11-06T08:20:26.951Z,984.78
2017-11-06T08:21:26.943Z,984.80
2017-11-06T08:22:26.947Z,984.78
2017-11-06T08:23:26.942Z,984.83
2017-11-06T08:24:27.903Z,984.81
2017-11-06T08:25:26.934Z,984.78
2017-11-06T08:26:26.934Z,984.78
2017-11-06T08:27:26.923Z,984.72
2017-11-06T08:28:26.930Z,984.72
2017-11-06T08:29:26.917Z,984.76
2017-11-06T08:30:26.912Z,984.76
2017-11-06T08:31:26.907Z,984.83
2017-11-06T08:32:26.905Z,984.80
2017-11-06T08:33:26.902Z,984.86
2017-11-06T08:34:26.895Z,984.85
2017-11-06T08:35:26.893Z,984.87
2017-11-06T08:36:26.888Z,984.81
2017-11-06T08:37:26.885Z,984.81
2017-11-06T08:38:26.883Z,984.85
2017-11-06T08:39:26.870Z,984.83
2017-11-06T08:40:26.874Z,984.86
2017-11-06T08:41:26.870Z,984.85
2017-11-06T08:42:26.870Z,984.90
2017-11-06T08:43:26.867Z,984.92
2017-11-06T08:44:26.878Z,984.94
2017-11-06T08:45:26.855Z,984.92
2017-11-06T08:46:26.850Z,984.94
2017-11-06T08:47:26.841Z,984.90
2017-11-06T08:48:26.845Z,984.93
2017-11-06T08:49:26.851Z,984.92
2017-11-06T08:50:26.834Z,984.94
2017-11-06T08:51:26.833Z,984.96
2017-11-06T08:52:26.826Z,984.97
2017-11-06T08:53:26.828Z,984.97
2017-11-06T08:54:26.821Z,985.01
2017-11-06T08:55:26.815Z,985.05
2017-11-06T08:56:26.817Z,985.09
2017-11-06T08:57:26.809Z,985.16
2017-11-06T08:58:26.810Z,985.24
2017-11-06T08:59:26.801Z,985.15
2017-11-06T09:00:26.797Z,985.12
2017-11-06T09:01:26.794Z,985.15
2017-11-06T09:02:26.806Z,985.14
2017-11-06T09:03:26.793Z,985.12
2017-11-06T09:04:26.790Z,985.12
2017-11-06T09:05:26.779Z,985.13
2017-11-06T09:06:26.775Z,985.16
2017-11-06T09:07:26.771Z,985.20
2017-11-06T09:08:26.769Z,985.21
2017-11-06T09:09:26.765Z,985.15
2017-11-06T09:10:26.763Z,985.19
2017-11-06T09:11:26.757Z,985.23
2017-11-06T09:12:26.760Z,985.22
2017-11-06T09:13:26.752Z,985.22
2017-11-06T09:14:26.751Z,985.23
2017-11-06T09:15:26.748Z,985.21
2017-11-06T09:16:26.739Z,985.32
2017-11-06T09:17:26.736Z,985.29
2017-11-06T09:18:26.738Z,985.36
2017-11-06T09:19:26.727Z,985.35
2017-11-06T09:20:26.726Z,985.35
2017-11-06T09:21:26.735Z,985.35
2017-11-06T09:22:26.719Z,985.36
2017-11-06T09:23:26.718Z,985.42
2017-11-06T09:24:26.713Z,985.37
2017-11-06T09:25:26.709Z,985.38
2017-11-06T09:26:26.704Z,985.44
2017-11-06T09:27:26.711Z,985.37
2017-11-06T09:28:26.694Z,985.39
2017-11-06T09:29:26.695Z,985.36
2017-11-06T09:30:26.690Z,985.39
2017-11-06T09:31:26.698Z,985.35
2017-11-06T09:32:26.687Z,985.36
2017-11-06T09:33:26.679Z,985.37
2017-11-06T09:34:26.675Z,985.40
2017-11-06T09:35:26.676Z,985.39
2017-11-06T09:36:26.675Z,985.44
2017-11-06T09:37:26.671Z,985.45
2017-11-06T09:38:26.665Z,985.49
2017-11-06T09:39:26.661Z,985.49
2017-11-06T09:40:26.662Z,985.52
2017-11-06T09:41:26.656Z,985.50
2017-11-06T09:42:26.662Z,985.55
2017-11-06T09:43:26.654Z,985.57
2017-11-06T09:44:26.649Z,985.59
2017-11-06T09:45:26.643Z,985.61
2017-11-06T09:46:26.638Z,985.64
2017-11-06T09:47:26.628Z,985.64
2017-11-06T09:48:26.634Z,985.61
2017-11-06T09:49:26.628Z,985.66
2017-11-06T09:50:26.624Z,985.70
2017-11-06T09:51:26.624Z,985.70
2017-11-06T09:52:26.624Z,985.68
2017-11-06T09:53:26.623Z,985.69
2017-11-06T09:54:26.610Z,985.70
2017-11-06T09:55:26.612Z,985.73
2017-11-06T09:56:26.606Z,985.76
2017-11-06T09:57:26.607Z,985.76
2017-11-06T09:58:26.598Z,985.74
2017-11-06T09:59:26.599Z,985.73
2017-11-06T10:00:26.594Z,985.76
2017-11-06T10:01:26.597Z,985.75
2017-11-06T10:02:26.587Z,985.78
2017-11-06T10:03:26.584Z,985.75
2017-11-06T10:04:26.581Z,985.78
2017-11-06T10:05:26.577Z,985.74
2017-11-06T10:06:26.573Z,985.68
2017-11-06T10:07:26.572Z,985.75
2017-11-06T10:08:26.571Z,985.75
2017-11-06T10:09:26.570Z,985.78
2017-11-06T10:10:26.572Z,985.81
2017-11-06T10:11:26.557Z,985.83
2017-11-06T10:12:26.554Z,985.86
2017-11-06T10:13:26.558Z,985.87
2017-11-06T10:14:26.548Z,985.83
2017-11-06T10:15:26.549Z,985.83
2017-11-06T10:16:26.545Z,985.79
2017-11-06T10:17:26.553Z,985.78
2017-11-06T10:18:26.536Z,985.81
2017-11-06T10:19:26.536Z,985.76
2017-11-06T10:20:26.538Z,985.80
2017-11-06T10:21:26.547Z,985.79
2017-11-06T10:22:26.526Z,985.81
2017-11-06T10:23:26.526Z,985.82
2017-11-06T10:24:26.518Z,985.82
2017-11-06T10:25:26.520Z,985.86
2017-11-06T10:26:26.556Z,985.82
2017-11-06T10:27:26.512Z,985.81
2017-11-06T10:28:26.503Z,985.81
2017-11-06T10:29:26.517Z,985.80
2017-11-06T10:30:26.495Z,985.78
2017-11-06T10:31:26.502Z,985.81
2017-11-06T10:32:26.495Z,985.81
2017-11-06T10:33:26.590Z,985.81
2017-11-06T10:34:26.493Z,985.84
2017-11-06T10:35:26.489Z,985.82
2017-11-06T10:36:26.484Z,985.84
2017-11-06T10:37:26.482Z,985.89
2017-11-06T10:38:26.480Z,985.89
2017-11-06T10:39:26.476Z,985.91
2017-11-06T10:40:26.497Z,985.95
2017-11-06T10:41:26.473Z,985.99
2017-11-06T10:42:26.466Z,985.98
2017-11-06T10:43:26.478Z,985.98
2017-11-06T10:44:26.464Z,985.99
2017-11-06T10:45:26.464Z,985.99
2017-11-06T10:46:26.478Z,985.97
2017-11-06T10:47:26.452Z,985.98
2017-11-06T10:48:26.461Z,985.96
2017-11-06T10:49:26.452Z,986.03
2017-11-06T10:50:26.449Z,986.01
2017-11-06T10:51:26.446Z,985.99
2017-11-06T10:52:26.463Z,986.01
2017-11-06T10:53:26.450Z,986.01
2017-11-06T10:54:26.438Z,986.03
2017-11-06T10:55:26.434Z,986.05
2017-11-06T10:56:26.433Z,986.11
2017-11-06T10:57:26.432Z,986.09
2017-11-06T10:58:26.428Z,986.11
2017-11-06T10:59:26.425Z,986.11
2017-11-06T11:00:26.419Z,986.09
2017-11-06T11:01:26.417Z,986.02
2017-11-06T11:02:26.418Z,986.02
2017-11-06T11:03:26.436Z,986.04
2017-11-06T11:04:26.415Z,986.09
2017-11-06T11:05:26.404Z,986.09
2017-11-06T11:06:26.426Z,986.06
2017-11-06T11:07:26.406Z,986.07
2017-11-06T11:08:26.405Z,986.06
2017-11-06T11:09:26.396Z,986.06
2017-11-06T11:10:26.390Z,986.05
2017-11-06T11:11:26.395Z,986.11
2017-11-06T11:12:26.389Z,986.13
2017-11-06T11:13:26.390Z,986.15
2017-11-06T11:14:26.396Z,986.12
2017-11-06T11:15:26.410Z,986.13
2017-11-06T11:16:26.375Z,986.11
2017-11-06T11:17:26.377Z,986.09
2017-11-06T11:18:26.410Z,986.11
2017-11-06T11:19:26.369Z,986.12
2017-11-06T11:20:26.378Z,986.10
2017-11-06T11:21:26.360Z,986.13
2017-11-06T11:22:26.363Z,986.18
2017-11-06T11:23:26.358Z,986.13
2017-11-06T11:24:26.390Z,986.18
2017-11-06T11:25:26.356Z,986.14
2017-11-06T11:26:26.348Z,986.15
2017-11-06T11:27:26.356Z,986.14
2017-11-06T11:28:26.346Z,986.14
2017-11-06T11:29:26.348Z,986.13
2017-11-06T11:30:26.340Z,986.20
2017-11-06T11:31:26.343Z,986.21
2017-11-06T11:32:26.336Z,986.22
2017-11-06T11:33:26.335Z,986.22
2017-11-06T11:34:26.332Z,986.26
2017-11-06T11:35:26.329Z,986.28
2017-11-06T11:36:26.327Z,986.30
2017-11-06T11:37:26.323Z,986.26
2017-11-06T11:38:26.320Z,986.29
2017-11-06T11:39:26.324Z,986.26
2017-11-06T11:40:26.320Z,986.27
2017-11-06T11:41:26.318Z,986.27
2017-11-06T11:42:26.315Z,986.27
2017-11-06T11:43:26.304Z,986.30
2017-11-06T11:44:26.312Z,986.24
2017-11-06T11:45:26.305Z,986.28
2017-11-06T11:46:26.300Z,986.28
2017-11-06T11:47:26.302Z,986.24
2017-11-06T11:48:26.298Z,986.26
2017-11-06T11:49:26.297Z,986.26
2017-11-06T11:50:26.294Z,986.23
2017-11-06T11:51:26.293Z,986.21
2017-11-06T11:52:26.293Z,986.27
2017-11-06T11:53:26.290Z,986.22
2017-11-06T11:54:33.908Z,986.25
2017-11-06T11:56:19.672Z,986.28
2017-11-06T11:57:19.648Z,986.33
2017-11-06T11:59:13.049Z,986.37
2017-11-06T12:00:13.028Z,986.36
2017-11-06T12:02:09.116Z,986.36
2017-11-06T12:03:09.095Z,986.42
2017-11-06T12:04:09.090Z,986.41
2017-11-06T12:05:09.096Z,986.38
2017-11-06T12:06:09.089Z,986.42
2017-11-06T12:07:09.087Z,986.42
2017-11-06T12:08:09.089Z,986.42
2017-11-06T12:09:09.083Z,986.40
2017-11-06T12:10:09.081Z,986.41
2017-11-06T12:11:09.080Z,986.41
2017-11-06T12:12:09.081Z,986.37
2017-11-06T12:13:09.072Z,986.39
2017-11-06T12:14:09.076Z,986.41
2017-11-06T12:15:09.079Z,986.43
2017-11-06T12:16:09.072Z,986.45
2017-11-06T12:17:09.073Z,986.48
2017-11-06T12:18:09.070Z,986.45
2017-11-06T12:19:09.068Z,986.44
2017-11-06T12:20:09.068Z,986.46
2017-11-06T12:21:09.066Z,986.48
2017-11-06T12:22:09.061Z,986.43
2017-11-06T12:23:09.063Z,986.45
2017-11-06T12:24:09.062Z,986.42
2017-11-06T12:25:09.069Z,986.41
2017-11-06T12:26:09.063Z,986.38
2017-11-06T12:27:09.059Z,986.41
2017-11-06T12:28:09.081Z,986.44
2017-11-06T12:29:09.058Z,986.42
2017-11-06T12:30:11.960Z,986.45
2017-11-06T12:31:09.056Z,986.45